createdAt,value
2022-09-05T00:09:50.164Z,17.8
2022-09-05T00:22:49.942Z,17.6
2022-09-05T00:30:34.990Z,17.5
2022-09-05T00:49:58.154Z,17.2
2022-09-05T01:00:00.198Z,17.1
2022-09-05T01:10:02.511Z,17
2022-09-05T01:20:18.833Z,16.9
2022-09-05T01:30:06.828Z,16.8
2022-09-05T01:40:12.812Z,16.7
2022-09-05T02:20:23.696Z,16.4
2022-09-05T02:30:20.894Z,16.3
2022-09-05T02:51:01.269Z,16.1
2022-09-05T03:00:27.008Z,16.2
2022-09-05T03:10:45.704Z,16.2
2022-09-05T03:20:30.868Z,16.1
2022-09-05T03:30:33.466Z,16.2
2022-09-05T03:40:35.692Z,16.1
2022-09-05T03:52:56.376Z,15.9
2022-09-05T04:00:39.810Z,15.6
2022-09-05T04:10:42.170Z,15.6
2022-09-05T04:20:44.105Z,15.6
2022-09-05T04:30:45.996Z,15.5
2022-09-05T04:40:48.096Z,15.5
2022-09-05T04:50:50.650Z,15.4
2022-09-05T05:03:39.222Z,15.8
2022-09-05T05:14:07.660Z,15.4
2022-09-05T05:31:01.763Z,15.6
2022-09-05T06:14:27.546Z,16.8
2022-09-05T06:22:05.148Z,17.3
2022-09-05T06:31:27.627Z,18.4
2022-09-05T06:41:13.341Z,18.7
2022-09-05T06:51:15.921Z,19.1
2022-09-05T07:01:18.369Z,19.9
2022-09-05T07:11:20.305Z,20.4
2022-09-05T07:21:26.187Z,21
2022-09-05T07:31:27.621Z,20.6
2022-09-05T07:41:26.226Z,21.3
2022-09-05T07:54:42.400Z,22.4
2022-09-05T08:01:30.455Z,22.8
2022-09-05T08:11:32.118Z,23.8
2022-09-05T08:21:37.950Z,24.6
2022-09-05T08:31:38.510Z,24.9
2022-09-05T08:41:43.025Z,25.4
2022-09-05T08:51:41.252Z,25.8
2022-09-05T09:02:07.649Z,26
2022-09-05T09:11:45.778Z,26.3
2022-09-05T09:21:48.233Z,26.7
2022-09-05T09:31:50.628Z,27.4
2022-09-05T09:41:52.471Z,27.5
2022-09-05T09:51:54.968Z,27.9
2022-09-05T10:12:00.248Z,28.3
2022-09-05T10:32:50.631Z,28.2
2022-09-05T10:42:06.073Z,28.3
2022-09-05T10:52:15.235Z,28.4
2022-09-05T11:02:25.094Z,28.3
2022-09-05T11:32:37.064Z,27.8
2022-09-05T12:12:39.711Z,30
2022-09-05T12:22:26.619Z,30
2022-09-05T12:32:36.660Z,29.9
2022-09-05T12:42:39.406Z,29.8
2022-09-05T12:52:32.630Z,30.3
2022-09-05T13:14:51.642Z,29.6
2022-09-05T13:14:51.742Z,29.6
2022-09-05T13:37:57.689Z,30.3
2022-09-05T13:52:52.792Z,30
2022-09-05T14:13:01.112Z,29.8
2022-09-05T14:22:58.878Z,29.8
2022-09-05T14:36:13.701Z,30.5
2022-09-05T14:43:02.939Z,30.8
2022-09-05T15:03:08.669Z,29.1
2022-09-05T15:13:09.354Z,28.9
2022-09-05T15:23:16.546Z,29.3
2022-09-05T15:33:13.818Z,29.7
2022-09-05T15:43:15.779Z,29.1
2022-09-05T15:53:17.446Z,28.9
2022-09-05T16:23:40.331Z,29
2022-09-05T16:33:27.028Z,28.7
2022-09-05T16:43:29.038Z,28.9
2022-09-05T16:53:34.679Z,28.9
2022-09-05T17:03:33.026Z,28.6
2022-09-05T17:25:12.622Z,27.9
2022-09-05T17:33:43.481Z,27.5
2022-09-05T17:43:41.329Z,27.2
2022-09-05T17:53:43.523Z,27.1
2022-09-05T18:03:45.862Z,26.9
2022-09-05T18:13:48.100Z,26.3
2022-09-05T18:23:54.194Z,25.9
2022-09-05T18:33:54.831Z,25.4
2022-09-05T18:53:57.207Z,24.6
2022-09-05T19:03:59.783Z,24.5
2022-09-05T19:14:25.262Z,23.8
2022-09-05T19:24:04.226Z,23.7
2022-09-05T19:37:00.963Z,23.4
2022-09-05T19:47:33.230Z,23.1
2022-09-05T19:54:10.627Z,22.6
2022-09-05T20:04:12.569Z,22.4
2022-09-05T20:14:16.772Z,22.3
2022-09-05T20:24:17.365Z,22.2
2022-09-05T20:34:22.632Z,21.8
2022-09-05T20:44:22.549Z,21.6
2022-09-05T20:54:34.509Z,21.5
2022-09-05T21:04:26.344Z,21.3
2022-09-05T21:14:28.223Z,20.9
2022-09-05T21:24:30.887Z,20.8
2022-09-05T21:47:17.228Z,20.7
2022-09-05T21:55:46.555Z,21.1
2022-09-05T22:04:41.394Z,21.1
2022-09-05T22:14:40.971Z,21
2022-09-05T22:24:43.368Z,20.9
2022-09-05T22:34:45.808Z,20.7
2022-09-05T22:44:47.888Z,20.5
2022-09-05T22:54:50.265Z,20.3
2022-09-05T23:04:52.826Z,20
2022-09-05T23:14:54.497Z,20.1
2022-09-05T23:24:56.721Z,20.1
2022-09-05T23:34:59.280Z,20.1
2022-09-05T23:45:01.110Z,20.1
2022-09-05T23:55:03.425Z,20.1
